Vernon, Oklahoma
Current Conditions -  °F | °C
As of 11:53 PM on Saturday 22 Nov 2014 (Local Time) from KMLC Reporting Station
Overcast Overcast  
Wind Chill: 60°   Ceiling: 1000
Heat Index: 60°   Visibility: 10mi
Dew Point: 58°   Wind: 7mph
Humidity: 93%   Direction: 170°S
Pressure: 29.71"   Gusts: NA
Location:  35.2158°N, 95.8817°W
Report Text: KMLC 230553Z AUTO 17006KT 10SM OVC010 16/14 A2971 RMK AO2 SLP056 60001 T01560144 10161 20128 401610128 55034
Loading
Personal Weather Stations






























Interactive Weather Map New forecast layout! Learn more

10-Day Weather Forecast

Advertisements
Track Severe Weather on mobile